createdAt,value
2017-12-30T00:00:31.574Z,997.4
2017-12-30T00:01:33.242Z,997.4
2017-12-30T00:02:34.792Z,997.4
2017-12-30T00:03:36.401Z,997.5
2017-12-30T00:04:38.007Z,997.4
2017-12-30T00:05:39.618Z,997.5
2017-12-30T00:06:41.306Z,997.5
2017-12-30T00:07:42.917Z,997.5
2017-12-30T00:08:44.654Z,997.6
2017-12-30T00:09:46.286Z,997.4
2017-12-30T00:10:47.895Z,997.4
2017-12-30T00:11:49.503Z,997.5
2017-12-30T00:12:52.275Z,997.5
2017-12-30T00:13:53.993Z,997.5
2017-12-30T00:14:55.605Z,997.5
2017-12-30T00:15:57.243Z,997.6
2017-12-30T00:16:58.855Z,997.6
2017-12-30T00:18:00.950Z,997.6
2017-12-30T00:19:04.339Z,997.6
2017-12-30T00:20:05.955Z,997.6
2017-12-30T00:21:07.559Z,997.6
2017-12-30T00:22:09.168Z,997.6
2017-12-30T00:23:10.778Z,997.6
2017-12-30T00:24:12.392Z,997.6
2017-12-30T00:25:14.197Z,997.6
2017-12-30T00:26:15.805Z,997.6
2017-12-30T00:27:18.443Z,997.7
2017-12-30T00:28:20.017Z,997.8
2017-12-30T00:29:23.070Z,997.7
2017-12-30T00:30:24.800Z,997.7
2017-12-30T00:31:26.491Z,997.7
2017-12-30T00:32:28.098Z,997.7
2017-12-30T00:33:29.709Z,997.8
2017-12-30T00:34:31.319Z,997.7
2017-12-30T00:35:32.932Z,997.8
2017-12-30T00:36:34.548Z,997.7
2017-12-30T00:37:36.156Z,997.7
2017-12-30T00:38:37.758Z,997.7
2017-12-30T00:39:39.366Z,997.7
2017-12-30T00:40:40.978Z,997.7
2017-12-30T00:41:42.588Z,997.7
2017-12-30T00:42:45.441Z,997.7
2017-12-30T00:43:47.055Z,997.6
2017-12-30T00:44:48.679Z,997.7
2017-12-30T00:45:50.510Z,997.7
2017-12-30T00:46:52.121Z,997.6
2017-12-30T00:47:53.725Z,997.6
2017-12-30T00:48:55.347Z,997.6
2017-12-30T00:49:56.956Z,997.6
2017-12-30T00:50:58.568Z,997.6
2017-12-30T00:52:00.180Z,997.6
2017-12-30T00:53:01.787Z,997.6
2017-12-30T00:54:03.398Z,997.6
2017-12-30T00:55:05.007Z,997.6
2017-12-30T00:56:06.620Z,997.6
2017-12-30T00:57:08.231Z,997.6
2017-12-30T00:58:09.841Z,997.6
2017-12-30T00:59:11.452Z,997.6
2017-12-30T01:00:13.063Z,997.7
2017-12-30T01:01:14.677Z,997.7
2017-12-30T01:02:16.285Z,997.7
2017-12-30T01:03:17.896Z,997.7
2017-12-30T01:04:19.505Z,997.7
2017-12-30T01:05:21.114Z,997.7
2017-12-30T01:06:22.729Z,997.7
2017-12-30T01:07:24.340Z,997.8
2017-12-30T01:08:25.946Z,997.8
2017-12-30T01:09:27.555Z,997.8
2017-12-30T01:10:29.163Z,997.8
2017-12-30T01:11:30.772Z,997.8
2017-12-30T01:12:32.383Z,997.8
2017-12-30T01:13:33.994Z,997.8
2017-12-30T01:14:35.608Z,997.8
2017-12-30T01:15:37.216Z,997.9
2017-12-30T01:16:38.823Z,997.8
2017-12-30T01:17:40.429Z,997.8
2017-12-30T01:18:42.047Z,997.8
2017-12-30T01:19:43.648Z,997.9
2017-12-30T01:20:45.260Z,997.9
2017-12-30T01:21:46.868Z,997.9
2017-12-30T01:22:48.478Z,997.9
2017-12-30T01:23:50.087Z,997.8
2017-12-30T01:24:51.698Z,997.8
2017-12-30T01:25:53.305Z,997.8
2017-12-30T01:26:55.012Z,997.9
2017-12-30T01:27:56.601Z,997.8
2017-12-30T01:28:58.210Z,997.9
2017-12-30T01:29:59.826Z,997.9
2017-12-30T01:31:01.429Z,997.9
2017-12-30T01:32:03.039Z,997.8
2017-12-30T01:33:04.646Z,997.9
2017-12-30T01:34:06.260Z,997.8
2017-12-30T01:35:07.866Z,997.8
2017-12-30T01:36:09.481Z,997.8
2017-12-30T01:37:11.089Z,997.8
2017-12-30T01:38:12.692Z,997.8
2017-12-30T01:39:14.303Z,997.7
2017-12-30T01:40:15.910Z,997.8
2017-12-30T01:41:17.521Z,997.7
2017-12-30T01:42:19.131Z,997.7
2017-12-30T01:43:20.740Z,997.7
2017-12-30T01:44:22.350Z,997.6
2017-12-30T01:45:23.965Z,997.7
2017-12-30T01:46:25.569Z,997.6
2017-12-30T01:47:27.178Z,997.6
2017-12-30T01:48:28.790Z,997.6
2017-12-30T01:49:30.406Z,997.5
2017-12-30T01:50:32.014Z,997.5
2017-12-30T01:51:33.625Z,997.5
2017-12-30T01:52:35.232Z,997.5
2017-12-30T01:53:36.840Z,997.5
2017-12-30T01:54:38.450Z,997.5
2017-12-30T01:55:40.060Z,997.5
2017-12-30T01:56:41.674Z,997.5
2017-12-30T01:57:43.281Z,997.5
2017-12-30T01:58:44.891Z,997.5
2017-12-30T01:59:46.501Z,997.5
2017-12-30T02:00:48.104Z,997.5
2017-12-30T02:01:49.713Z,997.5
2017-12-30T02:02:51.323Z,997.5
2017-12-30T02:03:52.936Z,997.5
2017-12-30T02:04:54.546Z,997.5
2017-12-30T02:05:56.154Z,997.5
2017-12-30T02:06:57.765Z,997.4
2017-12-30T02:07:59.373Z,997.4
2017-12-30T02:09:00.981Z,997.4
2017-12-30T02:10:02.593Z,997.4
2017-12-30T02:11:04.204Z,997.4
2017-12-30T02:12:05.813Z,997.3
2017-12-30T02:13:07.424Z,997.3
2017-12-30T02:14:09.033Z,997.2
2017-12-30T02:15:10.648Z,997.2
2017-12-30T02:16:12.257Z,997.2
2017-12-30T02:17:13.867Z,997.2
2017-12-30T02:18:15.475Z,997.2
2017-12-30T02:19:17.083Z,997.2
2017-12-30T02:20:18.691Z,997.1
2017-12-30T02:21:20.301Z,997.1
2017-12-30T02:22:21.910Z,997.1
2017-12-30T02:23:23.519Z,997.0
2017-12-30T02:24:25.130Z,996.9
2017-12-30T02:25:26.743Z,997.0
2017-12-30T02:26:28.353Z,996.9
2017-12-30T02:27:29.960Z,997.0
2017-12-30T02:28:31.571Z,997.0
2017-12-30T02:29:33.177Z,997.0
2017-12-30T02:30:34.788Z,997.0
2017-12-30T02:31:36.401Z,997.0
2017-12-30T02:32:38.012Z,997.0
2017-12-30T02:33:39.617Z,997.0
2017-12-30T02:34:41.227Z,996.9
2017-12-30T02:35:42.835Z,996.9
2017-12-30T02:36:44.443Z,996.8
2017-12-30T02:37:46.054Z,996.8
2017-12-30T02:38:47.666Z,996.7
2017-12-30T02:39:49.276Z,996.7
2017-12-30T02:40:50.883Z,996.7
2017-12-30T02:41:52.491Z,996.6
2017-12-30T02:42:54.103Z,996.6
2017-12-30T02:43:55.713Z,996.7
2017-12-30T02:44:57.323Z,996.7
2017-12-30T02:45:58.944Z,996.7
2017-12-30T02:47:00.557Z,996.7
2017-12-30T02:48:02.168Z,996.6
2017-12-30T02:49:03.776Z,996.6
2017-12-30T02:50:05.397Z,996.6
2017-12-30T02:51:07.005Z,996.6
2017-12-30T02:52:08.610Z,996.7
2017-12-30T02:53:10.215Z,996.7
2017-12-30T02:54:11.831Z,996.7
2017-12-30T02:55:13.439Z,996.7
2017-12-30T02:56:15.049Z,996.7
2017-12-30T02:57:16.657Z,996.7
2017-12-30T02:58:18.270Z,996.7
2017-12-30T02:59:19.879Z,996.7
2017-12-30T03:00:21.489Z,996.7
2017-12-30T03:01:23.105Z,996.6
2017-12-30T03:02:24.719Z,996.6
2017-12-30T03:03:26.329Z,996.6
2017-12-30T03:04:27.936Z,996.5
2017-12-30T03:05:29.546Z,996.5
2017-12-30T03:06:31.157Z,996.4
2017-12-30T03:07:32.770Z,996.4
2017-12-30T03:08:34.380Z,996.4
2017-12-30T03:09:35.988Z,996.4
2017-12-30T03:10:37.594Z,996.5
2017-12-30T03:11:39.202Z,996.5
2017-12-30T03:12:40.812Z,996.5
2017-12-30T03:13:42.422Z,996.3
2017-12-30T03:14:44.034Z,996.3
2017-12-30T03:15:45.645Z,996.3
2017-12-30T03:16:47.256Z,996.3
2017-12-30T03:17:48.863Z,996.3
2017-12-30T03:18:50.473Z,996.2
2017-12-30T03:19:52.080Z,996.3
2017-12-30T03:20:53.695Z,996.3
2017-12-30T03:21:55.302Z,996.3
2017-12-30T03:22:56.914Z,996.3
2017-12-30T03:23:58.521Z,996.3
2017-12-30T03:25:00.129Z,996.4
2017-12-30T03:26:01.738Z,996.4
2017-12-30T03:27:03.344Z,996.4
2017-12-30T03:28:04.994Z,996.4
2017-12-30T03:29:06.569Z,996.3
2017-12-30T03:30:08.184Z,996.3
2017-12-30T03:31:09.793Z,996.3
2017-12-30T03:32:11.398Z,996.2
2017-12-30T03:33:13.005Z,996.2
2017-12-30T03:34:14.614Z,996.2
2017-12-30T03:35:16.224Z,996.3
2017-12-30T03:36:17.836Z,996.3
2017-12-30T03:37:19.446Z,996.2
2017-12-30T03:38:21.056Z,996.2
2017-12-30T03:39:22.662Z,996.2
2017-12-30T03:40:24.268Z,996.1
2017-12-30T03:41:25.877Z,996.1
2017-12-30T03:42:27.486Z,996.0
2017-12-30T03:43:29.100Z,996.0
2017-12-30T03:44:30.710Z,996.0
2017-12-30T03:45:32.318Z,996.0
2017-12-30T03:46:33.926Z,996.1
2017-12-30T03:47:35.535Z,996.0
2017-12-30T03:48:37.144Z,996.1
2017-12-30T03:49:38.753Z,996.1
2017-12-30T03:50:40.363Z,996.1
2017-12-30T03:51:41.974Z,996.1
2017-12-30T03:52:43.583Z,996.1
2017-12-30T03:53:45.189Z,996.1
2017-12-30T03:54:46.799Z,996.1
2017-12-30T03:55:48.413Z,996.1
2017-12-30T03:56:50.022Z,996.0
2017-12-30T03:57:51.633Z,996.0
2017-12-30T03:58:53.244Z,996.0
2017-12-30T03:59:54.854Z,996.0
2017-12-30T04:00:56.462Z,995.9
2017-12-30T04:01:58.073Z,996.0
2017-12-30T04:02:59.684Z,995.9
2017-12-30T04:04:01.293Z,996.0
2017-12-30T04:05:02.905Z,995.9
2017-12-30T04:06:04.517Z,996.0
2017-12-30T04:07:06.127Z,996.0
2017-12-30T04:08:07.733Z,996.0
2017-12-30T04:09:09.341Z,996.0
2017-12-30T04:10:10.947Z,995.9
2017-12-30T04:11:12.557Z,996.0
2017-12-30T04:12:14.167Z,996.0
2017-12-30T04:13:15.773Z,995.9
2017-12-30T04:14:17.384Z,995.9
2017-12-30T04:15:18.995Z,995.9
2017-12-30T04:16:20.602Z,995.9
2017-12-30T04:17:22.213Z,995.8
2017-12-30T04:18:23.824Z,995.8
2017-12-30T04:19:25.433Z,995.9
2017-12-30T04:20:27.043Z,995.8
2017-12-30T04:21:28.658Z,995.8
2017-12-30T04:22:30.264Z,995.8
2017-12-30T04:23:31.872Z,995.8
2017-12-30T04:24:33.483Z,995.8
2017-12-30T04:25:35.096Z,995.8
2017-12-30T04:26:36.702Z,995.9
2017-12-30T04:27:38.315Z,995.9
2017-12-30T04:28:39.924Z,995.9
2017-12-30T04:29:41.534Z,995.9
2017-12-30T04:30:43.138Z,996.0
2017-12-30T04:31:44.747Z,995.9
2017-12-30T04:32:46.361Z,996.0
2017-12-30T04:33:47.972Z,996.0
2017-12-30T04:34:49.584Z,995.9
2017-12-30T04:35:51.190Z,995.9
2017-12-30T04:36:52.795Z,995.9
2017-12-30T04:37:54.408Z,995.8
2017-12-30T04:38:56.018Z,995.9
2017-12-30T04:39:57.626Z,995.8
2017-12-30T04:40:59.238Z,995.8
2017-12-30T04:42:00.848Z,995.8
2017-12-30T04:43:02.459Z,995.8
2017-12-30T04:44:04.067Z,995.9
2017-12-30T04:45:05.675Z,995.8
2017-12-30T04:46:07.280Z,995.8
2017-12-30T04:47:08.894Z,995.8
2017-12-30T04:48:10.504Z,995.8
2017-12-30T04:49:12.113Z,995.9
2017-12-30T04:50:13.722Z,995.9
2017-12-30T04:51:15.330Z,995.8
2017-12-30T04:52:16.936Z,995.8
2017-12-30T04:53:18.548Z,995.6
2017-12-30T04:54:20.161Z,995.7
2017-12-30T04:55:21.768Z,995.7
2017-12-30T04:56:23.378Z,995.7
2017-12-30T04:57:24.987Z,995.7
2017-12-30T04:58:26.593Z,995.7
2017-12-30T04:59:28.207Z,995.6
2017-12-30T05:00:29.814Z,995.6
2017-12-30T05:01:31.425Z,995.6
2017-12-30T05:02:33.036Z,995.6
2017-12-30T05:03:34.646Z,995.6
2017-12-30T05:04:36.254Z,995.6
2017-12-30T05:05:37.863Z,995.5
2017-12-30T05:06:39.471Z,995.5
2017-12-30T05:07:41.082Z,995.5
2017-12-30T05:08:42.692Z,995.5
2017-12-30T05:09:44.302Z,995.5
2017-12-30T05:10:45.911Z,995.6
2017-12-30T05:11:47.520Z,995.6
2017-12-30T05:12:49.124Z,995.6
2017-12-30T05:13:50.734Z,995.6
2017-12-30T05:14:52.345Z,995.6
2017-12-30T05:15:53.961Z,995.6
2017-12-30T05:16:55.567Z,995.6
2017-12-30T05:17:57.179Z,995.5
2017-12-30T05:18:58.788Z,995.6
2017-12-30T05:20:00.396Z,995.5
2017-12-30T05:21:02.009Z,995.7
2017-12-30T05:22:03.615Z,995.6
2017-12-30T05:23:05.225Z,995.6
2017-12-30T05:24:06.836Z,995.6
2017-12-30T05:25:08.447Z,995.7
2017-12-30T05:26:10.058Z,995.6
2017-12-30T05:27:11.665Z,995.6
2017-12-30T05:28:13.275Z,995.6
2017-12-30T05:29:14.882Z,995.6
2017-12-30T05:30:16.493Z,995.6
2017-12-30T05:31:18.104Z,995.6
2017-12-30T05:32:19.712Z,995.6
2017-12-30T05:33:21.324Z,995.6
2017-12-30T05:34:22.935Z,995.6
2017-12-30T05:35:24.540Z,995.7
2017-12-30T05:36:26.151Z,995.7
2017-12-30T05:37:27.763Z,995.7
2017-12-30T05:38:29.374Z,995.8
2017-12-30T05:39:30.986Z,995.8
2017-12-30T05:40:32.594Z,995.8
2017-12-30T05:41:34.202Z,995.7
2017-12-30T05:42:35.810Z,995.8
2017-12-30T05:43:37.420Z,995.7
2017-12-30T05:44:39.029Z,995.6
2017-12-30T05:45:40.640Z,995.5
2017-12-30T05:46:42.250Z,995.5
2017-12-30T05:47:43.858Z,995.4
2017-12-30T05:48:45.468Z,995.4
2017-12-30T05:49:47.077Z,995.6
2017-12-30T05:50:48.688Z,995.6
2017-12-30T05:51:50.288Z,995.6
2017-12-30T05:52:51.898Z,995.6
2017-12-30T05:53:53.510Z,995.6
2017-12-30T05:54:55.118Z,995.5
2017-12-30T05:55:56.726Z,995.4
2017-12-30T05:56:58.333Z,995.4
2017-12-30T05:57:59.944Z,995.3
2017-12-30T05:59:01.551Z,995.4
2017-12-30T06:00:03.163Z,995.4
2017-12-30T06:01:04.775Z,995.3
2017-12-30T06:02:06.386Z,995.2
2017-12-30T06:03:07.992Z,995.1
2017-12-30T06:04:09.598Z,995.1
2017-12-30T06:05:11.206Z,995.0
2017-12-30T06:06:12.817Z,995.0
2017-12-30T06:07:14.429Z,995.0
2017-12-30T06:08:16.043Z,994.9
2017-12-30T06:09:17.644Z,994.9
2017-12-30T06:10:19.247Z,994.9
2017-12-30T06:11:20.857Z,994.9
2017-12-30T06:12:22.475Z,994.9
2017-12-30T06:13:24.079Z,994.8
2017-12-30T06:14:25.696Z,994.8
2017-12-30T06:15:27.303Z,994.8
2017-12-30T06:16:28.910Z,994.8
2017-12-30T06:17:30.517Z,994.7
2017-12-30T06:18:32.125Z,994.8
2017-12-30T06:19:33.737Z,994.7
2017-12-30T06:20:35.343Z,994.7
2017-12-30T06:21:36.958Z,994.7
2017-12-30T06:22:38.566Z,994.5
2017-12-30T06:23:40.174Z,994.5
2017-12-30T06:24:41.781Z,994.5
2017-12-30T06:25:43.390Z,994.4
2017-12-30T06:26:44.999Z,994.3
2017-12-30T06:27:46.611Z,994.3
2017-12-30T06:28:48.223Z,994.1
2017-12-30T06:29:49.835Z,994.1
2017-12-30T06:30:51.438Z,994.0
2017-12-30T06:31:53.048Z,994.0
2017-12-30T06:32:54.655Z,994.0
2017-12-30T06:33:56.265Z,993.9
2017-12-30T06:34:57.876Z,993.8
2017-12-30T06:35:59.488Z,993.8
2017-12-30T06:37:01.097Z,993.9
2017-12-30T06:38:02.709Z,993.9
2017-12-30T06:39:04.317Z,993.8
2017-12-30T06:40:05.925Z,994.0
2017-12-30T06:41:07.540Z,994.0
2017-12-30T06:42:09.148Z,994.0
2017-12-30T06:43:10.757Z,994.0
2017-12-30T06:44:12.364Z,994.0
2017-12-30T06:45:13.972Z,993.8
2017-12-30T06:46:15.579Z,993.6
2017-12-30T06:47:17.189Z,993.5
2017-12-30T06:48:18.798Z,993.5
2017-12-30T06:49:20.407Z,993.5
2017-12-30T06:50:22.017Z,993.5
2017-12-30T06:51:23.626Z,993.5
2017-12-30T06:52:25.234Z,993.4
2017-12-30T06:53:26.842Z,993.3
2017-12-30T06:54:28.451Z,993.3
2017-12-30T06:55:30.063Z,993.2
2017-12-30T06:56:31.671Z,993.3
2017-12-30T06:57:33.282Z,993.3
2017-12-30T06:58:34.887Z,993.3
2017-12-30T06:59:36.496Z,993.2
2017-12-30T07:00:38.108Z,993.3
2017-12-30T07:01:39.712Z,993.3
2017-12-30T07:02:41.324Z,993.4
2017-12-30T07:03:42.960Z,993.3
2017-12-30T07:04:44.571Z,993.2
2017-12-30T07:05:46.193Z,993.3
2017-12-30T07:06:47.800Z,993.2
2017-12-30T07:07:49.408Z,993.2
2017-12-30T07:08:51.021Z,993.2
2017-12-30T07:09:52.635Z,993.1
2017-12-30T07:10:54.274Z,993.1
2017-12-30T07:11:55.900Z,993.1
2017-12-30T07:12:57.537Z,993.0
2017-12-30T07:13:59.153Z,993.1
2017-12-30T07:15:00.762Z,992.8
2017-12-30T07:16:02.373Z,992.9
2017-12-30T07:17:04.014Z,992.9
2017-12-30T07:18:05.633Z,992.8
2017-12-30T07:19:07.279Z,993.0
2017-12-30T07:20:08.907Z,993.0
2017-12-30T07:21:10.518Z,993.0
2017-12-30T07:22:12.135Z,993.1
2017-12-30T07:23:13.735Z,993.1
2017-12-30T07:24:15.345Z,993.0
2017-12-30T07:25:16.955Z,992.9
2017-12-30T07:26:18.566Z,992.9
2017-12-30T07:27:20.178Z,992.8
2017-12-30T07:28:21.785Z,992.8
2017-12-30T07:29:23.438Z,992.8
2017-12-30T07:30:25.005Z,992.6
2017-12-30T07:31:26.617Z,992.5
2017-12-30T07:32:28.220Z,992.5
2017-12-30T07:33:29.830Z,992.7
2017-12-30T07:34:31.443Z,992.4
2017-12-30T07:35:33.052Z,992.5
2017-12-30T07:36:34.664Z,992.4
2017-12-30T07:37:36.270Z,992.3
2017-12-30T07:38:37.879Z,992.4
2017-12-30T07:39:39.487Z,992.3
2017-12-30T07:40:41.106Z,992.2
2017-12-30T07:41:42.718Z,992.3
2017-12-30T07:42:44.326Z,992.3
2017-12-30T07:43:45.937Z,992.4
2017-12-30T07:44:47.543Z,992.3
2017-12-30T07:45:49.155Z,992.3
2017-12-30T07:46:50.769Z,992.3
2017-12-30T07:47:52.374Z,992.3
2017-12-30T07:48:53.984Z,992.2
2017-12-30T07:49:55.594Z,992.1
2017-12-30T07:50:57.205Z,992.2
2017-12-30T07:51:58.816Z,992.2
2017-12-30T07:53:00.426Z,992.2
2017-12-30T07:54:02.036Z,992.2
2017-12-30T07:55:03.648Z,992.1
2017-12-30T07:56:05.259Z,992.0
2017-12-30T07:57:06.866Z,991.9
2017-12-30T07:58:08.476Z,992.0
2017-12-30T07:59:10.087Z,992.1
2017-12-30T08:00:11.704Z,991.9
2017-12-30T08:01:13.306Z,992.0
2017-12-30T08:02:14.916Z,991.9
2017-12-30T08:03:16.534Z,991.7
2017-12-30T08:04:18.142Z,991.6
2017-12-30T08:05:19.752Z,991.7
2017-12-30T08:06:21.363Z,991.6
2017-12-30T08:07:22.973Z,991.6
2017-12-30T08:08:24.592Z,991.5
2017-12-30T08:09:26.198Z,991.7
2017-12-30T08:10:27.811Z,991.5
2017-12-30T08:11:29.422Z,991.5
2017-12-30T08:12:31.030Z,991.6
2017-12-30T08:13:32.643Z,991.5
2017-12-30T08:14:34.255Z,991.5
2017-12-30T08:15:35.866Z,991.5
2017-12-30T08:16:37.479Z,991.4
2017-12-30T08:17:39.092Z,991.3
2017-12-30T08:18:40.712Z,991.2
2017-12-30T08:19:42.312Z,991.3
2017-12-30T08:20:43.924Z,991.2
2017-12-30T08:21:45.532Z,991.1
2017-12-30T08:22:47.145Z,991.1
2017-12-30T08:23:48.760Z,991.1
2017-12-30T08:24:50.382Z,991.2
2017-12-30T08:25:51.981Z,991.1
2017-12-30T08:26:53.598Z,991.0
2017-12-30T08:27:55.208Z,990.9
2017-12-30T08:28:57.344Z,991.0
2017-12-30T08:29:58.923Z,991.0
2017-12-30T08:31:00.541Z,991.3
2017-12-30T08:32:02.151Z,991.1
2017-12-30T08:33:03.760Z,991.1
2017-12-30T08:34:05.369Z,990.9
2017-12-30T08:35:06.980Z,990.9
2017-12-30T08:36:08.598Z,990.9
2017-12-30T08:37:10.209Z,991.1
2017-12-30T08:38:11.823Z,991.0
2017-12-30T08:39:13.438Z,990.9
2017-12-30T08:40:15.050Z,990.8
2017-12-30T08:41:16.661Z,990.9
2017-12-30T08:42:18.272Z,990.9
2017-12-30T08:43:19.885Z,990.7
2017-12-30T08:44:21.515Z,990.6
2017-12-30T08:45:23.126Z,990.6
2017-12-30T08:46:24.740Z,990.8
2017-12-30T08:47:26.353Z,990.6
2017-12-30T08:48:27.966Z,990.5
2017-12-30T08:49:29.580Z,990.7
2017-12-30T08:50:31.199Z,990.5
2017-12-30T08:51:32.805Z,990.6
2017-12-30T08:52:34.423Z,990.5
2017-12-30T08:53:36.032Z,990.4
2017-12-30T08:54:37.659Z,990.5
2017-12-30T08:55:39.266Z,990.4
2017-12-30T08:56:40.879Z,990.4
2017-12-30T08:57:42.492Z,990.4
2017-12-30T08:58:44.107Z,990.5
2017-12-30T08:59:45.720Z,990.5
2017-12-30T09:00:47.669Z,990.4
2017-12-30T09:01:49.273Z,990.4
2017-12-30T09:02:50.909Z,990.3
2017-12-30T09:03:52.528Z,990.3
2017-12-30T09:04:54.153Z,990.2
2017-12-30T09:05:55.777Z,990.2
2017-12-30T09:06:57.388Z,990.2
2017-12-30T09:07:59.118Z,990.2
2017-12-30T09:09:00.753Z,990.3
2017-12-30T09:10:02.367Z,990.4
2017-12-30T09:11:03.975Z,990.4
2017-12-30T09:12:05.589Z,990.6
2017-12-30T09:13:07.199Z,990.7
2017-12-30T09:14:08.814Z,990.6
2017-12-30T09:15:10.425Z,990.7
2017-12-30T09:16:12.035Z,990.6
2017-12-30T09:17:13.683Z,990.6
2017-12-30T09:18:15.299Z,990.5
2017-12-30T09:19:16.924Z,990.6
2017-12-30T09:20:18.534Z,990.6
2017-12-30T09:21:20.151Z,990.5
2017-12-30T09:22:21.811Z,990.4
2017-12-30T09:23:23.425Z,990.5
2017-12-30T09:24:25.034Z,990.4
2017-12-30T09:25:26.646Z,990.5
2017-12-30T09:26:28.261Z,990.4
2017-12-30T09:27:29.875Z,990.5
2017-12-30T09:28:31.486Z,990.5
2017-12-30T09:29:33.114Z,990.6
2017-12-30T09:30:34.742Z,990.5
2017-12-30T09:31:36.337Z,990.5
2017-12-30T09:32:37.948Z,990.3
2017-12-30T09:33:39.560Z,990.5
2017-12-30T09:34:41.172Z,990.5
2017-12-30T09:35:42.783Z,990.5
2017-12-30T09:36:44.396Z,990.4
2017-12-30T09:37:46.008Z,990.5
2017-12-30T09:38:47.619Z,990.6
2017-12-30T09:39:49.231Z,990.6
2017-12-30T09:40:50.844Z,990.6
2017-12-30T09:41:52.455Z,990.5
2017-12-30T09:42:54.070Z,990.6
2017-12-30T09:43:55.685Z,990.6
2017-12-30T09:44:57.297Z,990.6
2017-12-30T09:45:58.908Z,990.6
2017-12-30T09:47:00.519Z,990.6
2017-12-30T09:48:02.132Z,990.7
2017-12-30T09:49:03.750Z,990.6
2017-12-30T09:50:05.362Z,990.6
2017-12-30T09:51:06.977Z,990.5
2017-12-30T09:52:08.590Z,990.6
2017-12-30T09:53:10.202Z,990.5
2017-12-30T09:54:11.810Z,990.6
2017-12-30T09:55:13.423Z,990.7
2017-12-30T09:56:15.034Z,990.7
2017-12-30T09:57:16.647Z,990.7
2017-12-30T09:58:18.261Z,990.7
2017-12-30T09:59:19.872Z,990.6
2017-12-30T10:00:21.484Z,990.6
2017-12-30T10:01:23.100Z,990.6
2017-12-30T10:02:24.709Z,990.6
2017-12-30T10:03:26.325Z,990.4
2017-12-30T10:04:27.939Z,990.5
2017-12-30T10:05:29.553Z,990.4
2017-12-30T10:06:31.165Z,990.4
2017-12-30T10:07:32.781Z,990.5
2017-12-30T10:08:34.391Z,990.5
2017-12-30T10:09:36.004Z,990.6
2017-12-30T10:10:37.611Z,990.6
2017-12-30T10:11:39.228Z,990.5
2017-12-30T10:12:40.843Z,990.5
2017-12-30T10:13:42.456Z,990.5
2017-12-30T10:14:44.066Z,990.5
2017-12-30T10:15:45.678Z,990.5
2017-12-30T10:16:47.295Z,990.3
2017-12-30T10:17:48.906Z,990.4
2017-12-30T10:18:50.520Z,990.4
2017-12-30T10:19:52.133Z,990.5
2017-12-30T10:20:53.754Z,990.4
2017-12-30T10:21:55.365Z,990.4
2017-12-30T10:22:56.977Z,990.4
2017-12-30T10:23:58.590Z,990.4
2017-12-30T10:25:00.204Z,990.3
2017-12-30T10:26:01.817Z,990.4
2017-12-30T10:27:03.435Z,990.4
2017-12-30T10:28:05.045Z,990.2
2017-12-30T10:29:06.661Z,990.3
2017-12-30T10:30:08.274Z,990.3
2017-12-30T10:31:09.888Z,990.3
2017-12-30T10:32:11.501Z,990.2
2017-12-30T10:33:13.117Z,990.3
2017-12-30T10:34:14.730Z,990.3
2017-12-30T10:35:16.342Z,990.2
2017-12-30T10:36:17.953Z,990.2
2017-12-30T10:37:19.564Z,990.2
2017-12-30T10:38:21.177Z,990.2
2017-12-30T10:39:22.791Z,990.2
2017-12-30T10:40:24.404Z,990.2
2017-12-30T10:41:26.018Z,990.2
2017-12-30T10:42:27.630Z,990.2
2017-12-30T10:43:29.238Z,990.2
2017-12-30T10:44:30.851Z,990.2
2017-12-30T10:45:32.464Z,990.3
2017-12-30T10:46:34.083Z,990.4
2017-12-30T10:47:35.696Z,990.4
2017-12-30T10:48:37.312Z,990.3
2017-12-30T10:49:38.923Z,990.2
2017-12-30T10:50:40.535Z,990.1
2017-12-30T10:51:42.173Z,990.2
2017-12-30T10:52:43.860Z,990.3
2017-12-30T10:53:45.385Z,990.3
2017-12-30T10:54:47.001Z,990.3
2017-12-30T10:55:48.611Z,990.4
2017-12-30T10:56:50.223Z,990.4
2017-12-30T10:57:51.843Z,990.4
2017-12-30T10:58:53.461Z,990.5
2017-12-30T10:59:55.078Z,990.5
2017-12-30T11:00:56.691Z,990.5
2017-12-30T11:01:58.306Z,990.6
2017-12-30T11:02:59.921Z,990.5
2017-12-30T11:04:01.532Z,990.5
2017-12-30T11:05:03.146Z,990.5
2017-12-30T11:06:04.758Z,990.6
2017-12-30T11:07:06.372Z,990.6
2017-12-30T11:08:07.986Z,990.7
2017-12-30T11:09:09.616Z,990.7
2017-12-30T11:10:11.224Z,990.7
2017-12-30T11:11:12.835Z,990.7
2017-12-30T11:12:14.448Z,990.7
2017-12-30T11:13:16.063Z,990.8
2017-12-30T11:14:17.677Z,990.8
2017-12-30T11:15:19.293Z,990.7
2017-12-30T11:16:20.918Z,990.7
2017-12-30T11:17:22.531Z,990.7
2017-12-30T11:18:24.143Z,990.7
2017-12-30T11:19:25.753Z,990.6
2017-12-30T11:20:27.368Z,990.7
2017-12-30T11:21:28.987Z,990.7
2017-12-30T11:22:30.602Z,990.7
2017-12-30T11:23:32.214Z,990.7
2017-12-30T11:24:33.830Z,990.7
2017-12-30T11:25:35.443Z,990.8
2017-12-30T11:26:37.063Z,990.8
2017-12-30T11:27:38.672Z,990.8
2017-12-30T11:28:40.286Z,990.8
2017-12-30T11:29:41.903Z,990.9
2017-12-30T11:30:43.520Z,990.8
2017-12-30T11:31:45.138Z,990.8
2017-12-30T11:32:46.752Z,990.8
2017-12-30T11:33:48.366Z,990.8
2017-12-30T11:34:49.980Z,990.8
2017-12-30T11:35:51.594Z,990.8
2017-12-30T11:36:53.208Z,990.8
2017-12-30T11:37:54.821Z,990.8
2017-12-30T11:38:56.438Z,990.8
2017-12-30T11:39:58.062Z,990.8
2017-12-30T11:40:59.674Z,990.9
2017-12-30T11:42:01.290Z,990.9
2017-12-30T11:43:02.907Z,990.9
2017-12-30T11:44:04.527Z,991.0
2017-12-30T11:45:06.135Z,991.0
2017-12-30T11:46:07.750Z,991.0
2017-12-30T11:47:09.369Z,991.0
2017-12-30T11:48:10.981Z,991.0
2017-12-30T11:49:12.599Z,991.0
2017-12-30T11:50:14.219Z,991.0
2017-12-30T11:51:15.833Z,991.0
2017-12-30T11:52:17.455Z,991.0
2017-12-30T11:53:19.071Z,990.9
2017-12-30T11:54:20.699Z,991.0
2017-12-30T11:55:22.323Z,991.0
2017-12-30T11:56:24.002Z,991.0
2017-12-30T11:57:25.616Z,991.0
2017-12-30T11:58:27.236Z,991.0
2017-12-30T11:59:28.869Z,991.0
2017-12-30T12:00:30.482Z,991.1
2017-12-30T12:01:32.097Z,991.1
2017-12-30T12:02:33.709Z,991.0
2017-12-30T12:03:35.327Z,991.0
2017-12-30T12:04:36.950Z,991.0
2017-12-30T12:05:38.565Z,991.0
2017-12-30T12:06:40.184Z,991.0
2017-12-30T12:07:41.803Z,991.0
2017-12-30T12:08:43.419Z,991.0
2017-12-30T12:09:45.037Z,991.1
2017-12-30T12:10:46.653Z,991.2
2017-12-30T12:11:48.270Z,991.2
2017-12-30T12:12:49.893Z,991.1
2017-12-30T12:13:51.512Z,991.2
2017-12-30T12:14:53.142Z,991.2
2017-12-30T12:15:54.755Z,991.3
2017-12-30T12:16:56.365Z,991.2
2017-12-30T12:17:57.977Z,991.3
2017-12-30T12:18:59.603Z,991.4
2017-12-30T12:20:01.224Z,991.3
2017-12-30T12:21:02.954Z,991.3
2017-12-30T12:22:04.563Z,991.3
2017-12-30T12:23:06.242Z,991.3
2017-12-30T12:24:07.861Z,991.3
2017-12-30T12:25:09.479Z,991.2
2017-12-30T12:26:11.099Z,991.2
2017-12-30T12:27:12.718Z,991.2
2017-12-30T12:28:14.338Z,991.3
2017-12-30T12:29:15.961Z,991.3
2017-12-30T12:30:17.579Z,991.3
2017-12-30T12:31:19.199Z,991.3
2017-12-30T12:32:20.817Z,991.3
2017-12-30T12:33:22.437Z,991.3
2017-12-30T12:34:24.054Z,991.4
2017-12-30T12:35:25.676Z,991.4
2017-12-30T12:36:27.301Z,991.4
2017-12-30T12:37:28.921Z,991.4
2017-12-30T12:38:30.537Z,991.4
2017-12-30T12:39:32.151Z,991.4
2017-12-30T12:40:33.772Z,991.4
2017-12-30T12:41:35.390Z,991.5
2017-12-30T12:42:37.009Z,991.5
2017-12-30T12:43:38.635Z,991.7
2017-12-30T12:44:40.251Z,991.6
2017-12-30T12:45:41.885Z,991.6
2017-12-30T12:46:43.493Z,991.7
2017-12-30T12:47:45.114Z,991.6
2017-12-30T12:48:46.736Z,991.7
2017-12-30T12:49:48.352Z,991.6
2017-12-30T12:50:49.975Z,991.6
2017-12-30T12:51:51.593Z,991.6
2017-12-30T12:52:53.210Z,991.7
2017-12-30T12:53:54.831Z,991.7
2017-12-30T12:54:56.452Z,991.7
2017-12-30T12:55:58.070Z,991.7
2017-12-30T12:56:59.691Z,991.8
2017-12-30T12:58:01.313Z,991.8
2017-12-30T12:59:02.931Z,991.9
2017-12-30T13:00:04.550Z,991.8
2017-12-30T13:01:06.172Z,991.9
2017-12-30T13:02:07.792Z,991.9
2017-12-30T13:03:09.410Z,991.8
2017-12-30T13:04:11.034Z,992.0
2017-12-30T13:05:12.651Z,991.9
2017-12-30T13:06:14.269Z,992.0
2017-12-30T13:07:15.893Z,992.0
2017-12-30T13:08:17.513Z,992.1
2017-12-30T13:09:19.131Z,992.1
2017-12-30T13:10:20.753Z,992.2
2017-12-30T13:11:22.372Z,992.1
2017-12-30T13:12:23.993Z,992.1
2017-12-30T13:13:25.613Z,992.2